Time;durP1;ratioP1;P1;durP2;ratioP2;P2;SDS_P1;SDS_P2;PMS_P1;PMS_P2;Temp;Humidity;BMP_temperature;BMP_pressure;BME280_temperature;BME280_humidity;BME280_pressure;Samples;Min_cycle;Max_cycle;Signal;HPM_P1;HPM_P2
2021/08/30 00:02:01;;;;;;;1.92;1.83;;;18.40;99.90;;;;;;5063567;28;20649;-72
2021/08/30 00:04:29;;;;;;;2.05;1.95;;;18.40;99.90;;;;;;5069461;28;20207;-73
2021/08/30 00:06:56;;;;;;;1.90;1.80;;;18.40;99.90;;;;;;5069682;28;20212;-73
2021/08/30 00:09:23;;;;;;;1.70;1.60;;;18.40;99.90;;;;;;5068310;28;20628;-73
2021/08/30 00:11:50;;;;;;;1.55;1.42;;;18.40;99.90;;;;;;5064344;28;20224;-72
2021/08/30 00:14:18;;;;;;;1.70;1.60;;;18.30;99.90;;;;;;5063068;28;20976;-72
2021/08/30 00:16:46;;;;;;;1.40;1.40;;;18.30;99.90;;;;;;5069255;28;20234;-72
2021/08/30 00:19:13;;;;;;;1.80;1.70;;;18.30;99.90;;;;;;5062661;28;20201;-72
2021/08/30 00:21:41;;;;;;;1.60;1.50;;;18.30;99.90;;;;;;5056480;28;20586;-72
2021/08/30 00:24:08;;;;;;;1.65;1.55;;;18.30;99.90;;;;;;5064421;28;20197;-72
2021/08/30 00:26:35;;;;;;;1.63;1.50;;;18.30;99.90;;;;;;5065165;28;20201;-72
2021/08/30 00:29:02;;;;;;;1.38;1.38;;;18.30;99.90;;;;;;5068315;28;20277;-72
2021/08/30 00:31:29;;;;;;;1.40;1.40;;;18.30;99.90;;;;;;5072581;28;20230;-72
2021/08/30 00:33:56;;;;;;;1.42;1.33;;;18.30;99.90;;;;;;5068400;28;20193;-72
2021/08/30 00:36:25;;;;;;;1.40;1.35;;;18.30;99.90;;;;;;5068025;28;20669;-72
2021/08/30 00:38:55;;;;;;;1.40;1.40;;;18.30;99.90;;;;;;5068672;28;20201;-72
2021/08/30 00:41:23;;;;;;;1.60;1.50;;;18.30;99.90;;;;;;5048747;28;20280;-72
2021/08/30 00:43:50;;;;;;;1.60;1.50;;;18.20;99.90;;;;;;5060110;28;20197;-72
2021/08/30 00:46:18;;;;;;;1.50;1.40;;;18.30;99.90;;;;;;5065512;28;20204;-72
2021/08/30 00:48:46;;;;;;;1.50;1.40;;;18.30;99.90;;;;;;5068737;28;20292;-72
2021/08/30 00:51:15;;;;;;;1.50;1.40;;;18.20;99.90;;;;;;5062843;28;20823;-72
2021/08/30 00:53:43;;;;;;;1.30;1.30;;;18.30;99.90;;;;;;5060189;28;20193;-72
2021/08/30 00:56:12;;;;;;;1.60;1.50;;;18.30;99.90;;;;;;5066749;28;20196;-72
2021/08/30 00:58:41;;;;;;;1.50;1.40;;;18.30;99.90;;;;;;5065624;28;20653;-72
2021/08/30 01:01:09;;;;;;;1.35;1.35;;;18.20;99.90;;;;;;5066194;28;20406;-70
2021/08/30 01:03:37;;;;;;;1.52;1.45;;;18.20;99.90;;;;;;5064967;28;20665;-71
2021/08/30 01:06:10;;;;;;;1.50;1.40;;;18.20;99.90;;;;;;5066872;28;20672;-73
2021/08/30 01:08:42;;;;;;;1.50;1.40;;;18.20;99.90;;;;;;5067831;28;20197;-73
2021/08/30 01:11:16;;;;;;;1.50;1.42;;;18.20;99.90;;;;;;5065662;28;20557;-71
2021/08/30 01:13:49;;;;;;;1.65;1.55;;;18.20;99.90;;;;;;5067461;28;20241;-72
2021/08/30 01:16:18;;;;;;;1.70;1.60;;;18.20;99.90;;;;;;5068243;28;20189;-73
2021/08/30 01:18:47;;;;;;;1.40;1.30;;;18.20;99.90;;;;;;5060268;28;20204;-71
2021/08/30 01:21:21;;;;;;;1.63;1.60;;;18.20;99.90;;;;;;5058791;28;20209;-71
2021/08/30 01:24:04;;;;;;;1.60;1.50;;;18.10;99.90;;;;;;5063312;28;20247;-71
2021/08/30 01:26:39;;;;;;;1.60;1.50;;;18.10;99.90;;;;;;5071477;28;20761;-72
2021/08/30 01:29:16;;;;;;;1.30;1.30;;;18.10;99.90;;;;;;5064407;28;20706;-71
2021/08/30 01:31:49;;;;;;;1.33;1.33;;;18.20;99.90;;;;;;5067920;28;20229;-71
2021/08/30 01:34:19;;;;;;;2.35;1.30;;;18.10;99.90;;;;;;5067206;28;20285;-72
2021/08/30 01:36:47;;;;;;;1.10;1.10;;;18.10;99.90;;;;;;5060969;28;21005;-71
2021/08/30 01:39:15;;;;;;;1.60;1.50;;;18.20;99.90;;;;;;5063653;28;20564;-72
2021/08/30 01:41:44;;;;;;;1.35;1.35;;;18.10;99.90;;;;;;5063155;28;20197;-72
2021/08/30 01:44:12;;;;;;;1.30;1.30;;;18.10;99.90;;;;;;5063568;28;20197;-72
2021/08/30 01:46:40;;;;;;;1.40;1.30;;;18.10;99.90;;;;;;5057207;28;20205;-72
2021/08/30 01:49:09;;;;;;;1.27;1.27;;;18.10;99.90;;;;;;5067269;28;20281;-72
2021/08/30 01:51:38;;;;;;;1.40;1.35;;;18.10;99.90;;;;;;5065792;28;20444;-72
2021/08/30 01:54:05;;;;;;;1.60;1.50;;;18.10;99.90;;;;;;5065559;28;20197;-73
2021/08/30 01:56:33;;;;;;;1.55;1.45;;;18.00;99.90;;;;;;5065359;28;20221;-70
2021/08/30 02:01:47;;;;;;;1.20;1.20;;;18.00;99.90;;;;;;5067555;28;20560;-73
2021/08/30 02:04:14;;;;;;;1.48;1.40;;;18.00;99.90;;;;;;5069126;28;20669;-73
2021/08/30 02:06:42;;;;;;;1.20;1.20;;;18.10;99.90;;;;;;5067962;28;20254;-72
2021/08/30 02:09:10;;;;;;;1.65;1.55;;;18.00;99.90;;;;;;5070178;28;20635;-72
2021/08/30 02:11:38;;;;;;;1.50;1.40;;;18.10;99.90;;;;;;5059612;28;20245;-73
2021/08/30 02:14:07;;;;;;;1.27;1.27;;;17.90;99.90;;;;;;5073730;28;20233;-73
2021/08/30 02:16:37;;;;;;;1.20;1.20;;;18.00;99.90;;;;;;5068725;28;20240;-72
2021/08/30 02:19:12;;;;;;;1.30;1.30;;;18.10;99.90;;;;;;5067026;28;20242;-73
2021/08/30 02:21:44;;;;;;;1.70;1.60;;;18.00;99.90;;;;;;5059744;28;20220;-73
2021/08/30 02:24:20;;;;;;;1.30;1.25;;;18.00;99.90;;;;;;5066838;28;20193;-73
2021/08/30 02:26:51;;;;;;;1.70;1.60;;;18.00;99.90;;;;;;5063373;28;20228;-72
2021/08/30 02:29:21;;;;;;;1.58;1.48;;;18.00;99.90;;;;;;5067825;28;20266;-72
2021/08/30 02:31:50;;;;;;;1.30;1.30;;;18.00;99.90;;;;;;5071270;28;20217;-72
2021/08/30 02:34:22;;;;;;;1.60;1.50;;;18.00;99.90;;;;;;5067515;28;20573;-72
2021/08/30 02:36:53;;;;;;;1.30;1.30;;;17.90;99.90;;;;;;5063337;28;20208;-73
2021/08/30 02:39:22;;;;;;;1.40;1.40;;;18.00;99.90;;;;;;5065411;28;20205;-72
2021/08/30 02:41:51;;;;;;;1.63;1.52;;;17.90;99.90;;;;;;5070827;28;20204;-72
2021/08/30 02:44:18;;;;;;;1.70;1.60;;;17.90;99.90;;;;;;5065548;28;20256;-71
2021/08/30 02:46:46;;;;;;;1.35;1.35;;;17.90;99.90;;;;;;5067422;28;20235;-72
2021/08/30 02:49:15;;;;;;;1.55;1.50;;;17.90;99.90;;;;;;5058837;28;20258;-73
2021/08/30 02:51:44;;;;;;;1.52;1.50;;;17.90;99.90;;;;;;5071882;28;20221;-73
2021/08/30 02:54:14;;;;;;;1.70;1.60;;;17.90;99.90;;;;;;5069073;28;20280;-73
2021/08/30 02:56:42;;;;;;;1.70;1.60;;;17.90;99.90;;;;;;5068346;28;20237;-73
2021/08/30 02:59:11;;;;;;;1.63;1.52;;;17.90;99.90;;;;;;5069534;28;20671;-71
2021/08/30 03:01:39;;;;;;;1.48;1.48;;;17.90;99.90;;;;;;5055516;28;20194;-73
2021/08/30 03:04:06;;;;;;;1.30;1.30;;;17.90;99.90;;;;;;5079826;28;20296;-72
2021/08/30 03:06:34;;;;;;;1.40;1.30;;;17.90;99.90;;;;;;5064700;28;20225;-72
2021/08/30 03:09:01;;;;;;;1.58;1.48;;;17.90;99.90;;;;;;5064698;28;20227;-72
2021/08/30 03:11:30;;;;;;;1.58;1.48;;;18.30;99.90;;;;;;5059839;28;20257;-72
2021/08/30 03:14:00;;;;;;;1.77;1.67;;;17.90;99.90;;;;;;5058180;28;20241;-71
2021/08/30 03:16:29;;;;;;;1.37;1.37;;;17.90;99.90;;;;;;5063169;28;20208;-71
2021/08/30 03:18:59;;;;;;;1.35;1.35;;;17.90;99.90;;;;;;5066124;28;20207;-72
2021/08/30 03:21:27;;;;;;;1.60;1.50;;;17.90;99.90;;;;;;5070630;28;20189;-71
2021/08/30 03:23:57;;;;;;;1.52;1.42;;;17.90;99.90;;;;;;5065444;28;20208;-73
2021/08/30 03:26:27;;;;;;;1.48;1.48;;;17.90;99.90;;;;;;5068113;28;20205;-73
2021/08/30 03:28:56;;;;;;;1.60;1.50;;;17.90;99.90;;;;;;5070411;28;20189;-72
2021/08/30 03:31:26;;;;;;;1.95;1.85;;;17.90;99.90;;;;;;5069065;28;20221;-72
2021/08/30 03:33:54;;;;;;;1.75;1.65;;;17.90;99.90;;;;;;5051289;28;20221;-72
2021/08/30 03:36:21;;;;;;;2.00;1.90;;;17.90;99.90;;;;;;5067719;28;20266;-72
2021/08/30 03:38:49;;;;;;;1.80;1.70;;;17.90;99.90;;;;;;5069362;28;20209;-71
2021/08/30 03:41:17;;;;;;;1.80;1.70;;;17.90;99.90;;;;;;5055602;28;20665;-71
2021/08/30 03:43:45;;;;;;;1.80;1.70;;;18.00;99.90;;;;;;5068080;28;20311;-71
2021/08/30 03:46:14;;;;;;;2.00;1.90;;;18.00;99.90;;;;;;5056639;28;20205;-71
2021/08/30 03:48:42;;;;;;;1.83;1.73;;;18.00;99.90;;;;;;5067959;28;20213;-71
2021/08/30 03:51:12;;;;;;;1.95;1.85;;;18.00;99.90;;;;;;5067084;28;20665;-71
2021/08/30 03:53:41;;;;;;;1.98;1.88;;;18.10;99.90;;;;;;5068719;28;20293;-71
2021/08/30 03:56:09;;;;;;;1.98;1.88;;;18.00;99.90;;;;;;5067773;28;20225;-71
2021/08/30 03:58:38;;;;;;;1.55;1.45;;;18.00;99.90;;;;;;5069362;28;20225;-72
2021/08/30 04:01:07;;;;;;;1.73;1.63;;;18.00;99.90;;;;;;5069921;28;20274;-71
2021/08/30 04:03:39;;;;;;;1.90;1.80;;;18.00;99.90;;;;;;5061112;28;20194;-71
2021/08/30 04:06:09;;;;;;;1.77;1.67;;;18.40;99.90;;;;;;5068837;28;20213;-73
2021/08/30 04:08:36;;;;;;;2.13;2.03;;;18.00;99.90;;;;;;5066803;28;20208;-72
2021/08/30 04:11:04;;;;;;;1.75;1.65;;;18.00;99.90;;;;;;5066454;28;20205;-70
2021/08/30 04:13:31;;;;;;;1.95;1.85;;;18.10;99.90;;;;;;5062397;28;20763;-71
2021/08/30 04:15:59;;;;;;;2.08;1.98;;;17.90;99.90;;;;;;5076574;28;20201;-72
2021/08/30 04:18:26;;;;;;;1.73;1.63;;;18.10;99.90;;;;;;5066721;28;20201;-71
2021/08/30 04:20:54;;;;;;;1.95;1.85;;;18.20;99.90;;;;;;5068003;28;20515;-71
2021/08/30 04:23:21;;;;;;;2.50;2.30;;;18.10;99.90;;;;;;5057846;28;20215;-73
2021/08/30 04:25:48;;;;;;;2.30;2.20;;;18.10;99.90;;;;;;5064128;28;20226;-73
2021/08/30 04:28:15;;;;;;;2.38;2.28;;;18.10;99.90;;;;;;5067800;28;20318;-73
2021/08/30 04:30:42;;;;;;;2.85;2.60;;;18.10;99.90;;;;;;5074574;28;20225;-71
2021/08/30 04:33:11;;;;;;;2.50;2.28;;;18.10;99.90;;;;;;5063706;28;20220;-72
2021/08/30 04:35:38;;;;;;;2.30;2.10;;;18.20;99.90;;;;;;5061565;28;20201;-72
2021/08/30 04:38:07;;;;;;;2.40;2.30;;;18.20;99.90;;;;;;5054002;28;20215;-72
2021/08/30 04:40:37;;;;;;;2.20;2.10;;;18.20;99.90;;;;;;5066893;28;20537;-72
2021/08/30 04:43:04;;;;;;;2.10;2.00;;;17.80;99.90;;;;;;5066834;28;20258;-72
2021/08/30 04:45:31;;;;;;;2.10;2.00;;;18.20;99.90;;;;;;5053828;28;20221;-72
2021/08/30 04:47:58;;;;;;;2.03;1.92;;;18.30;99.90;;;;;;5068563;28;20201;-72
2021/08/30 04:50:25;;;;;;;2.20;2.10;;;18.30;99.90;;;;;;5057277;28;20198;-72
2021/08/30 04:52:52;;;;;;;2.28;2.05;;;18.30;99.90;;;;;;5068427;28;20221;-73
2021/08/30 04:55:21;;;;;;;1.90;1.80;;;18.30;99.90;;;;;;5066232;28;20216;-71
2021/08/30 04:57:48;;;;;;;1.80;1.70;;;18.30;99.90;;;;;;5063006;28;20208;-72
2021/08/30 05:00:17;;;;;;;1.95;1.85;;;18.30;99.90;;;;;;5059888;28;20232;-71
2021/08/30 05:02:44;;;;;;;1.95;1.85;;;18.30;99.90;;;;;;5066245;28;20664;-71
2021/08/30 05:05:11;;;;;;;2.10;2.00;;;18.30;99.90;;;;;;5067270;28;20204;-71
2021/08/30 05:07:38;;;;;;;1.75;1.65;;;18.40;99.90;;;;;;5063229;28;20217;-71
2021/08/30 05:10:06;;;;;;;2.15;2.05;;;18.40;99.90;;;;;;5063066;28;20241;-72
2021/08/30 05:12:37;;;;;;;2.13;2.03;;;18.40;99.90;;;;;;5061223;28;20230;-71
2021/08/30 05:15:06;;;;;;;2.20;2.10;;;18.40;99.90;;;;;;5066868;28;20625;-72
2021/08/30 05:17:33;;;;;;;2.47;2.28;;;18.50;99.90;;;;;;5067814;28;20197;-72
2021/08/30 05:20:00;;;;;;;2.35;2.15;;;18.50;99.90;;;;;;5067583;28;20208;-72
2021/08/30 05:22:27;;;;;;;2.42;2.22;;;18.50;99.90;;;;;;5064125;28;20193;-72
2021/08/30 05:24:54;;;;;;;2.65;2.45;;;18.50;99.90;;;;;;5060664;28;20209;-72
2021/08/30 05:27:21;;;;;;;2.60;2.40;;;18.60;99.90;;;;;;5056302;28;20212;-72
2021/08/30 05:29:49;;;;;;;2.75;2.55;;;18.30;99.90;;;;;;5066787;28;20558;-72
2021/08/30 05:32:17;;;;;;;2.28;2.17;;;18.60;99.90;;;;;;5058785;28;20267;-72
2021/08/30 05:34:44;;;;;;;2.67;2.47;;;18.70;99.90;;;;;;5067439;28;20201;-72
2021/08/30 05:37:11;;;;;;;2.20;2.10;;;18.70;99.90;;;;;;5066309;28;20535;-72
2021/08/30 05:39:38;;;;;;;2.40;2.22;;;18.70;99.90;;;;;;5059055;28;20259;-72
2021/08/30 05:42:05;;;;;;;2.03;1.92;;;18.80;99.90;;;;;;5054632;28;20212;-72
2021/08/30 05:44:32;;;;;;;2.08;1.98;;;18.80;99.90;;;;;;5064994;28;20212;-72
2021/08/30 05:47:00;;;;;;;2.22;2.13;;;18.90;99.90;;;;;;5065010;28;20201;-72
2021/08/30 05:49:27;;;;;;;2.13;2.03;;;18.90;99.90;;;;;;5053259;28;20193;-72
2021/08/30 05:51:54;;;;;;;2.22;2.00;;;19.00;99.90;;;;;;5060458;28;20213;-71
2021/08/30 05:54:21;;;;;;;2.38;2.10;;;19.00;99.90;;;;;;5060487;28;20201;-71
2021/08/30 05:56:48;;;;;;;1.88;1.73;;;19.10;99.90;;;;;;5066710;28;20197;-71
2021/08/30 05:59:15;;;;;;;1.88;1.77;;;19.10;99.90;;;;;;5065499;28;20211;-71
2021/08/30 06:01:43;;;;;;;2.08;1.98;;;19.20;99.90;;;;;;5062007;28;20679;-71
2021/08/30 06:04:11;;;;;;;2.03;1.92;;;19.20;99.90;;;;;;5057538;28;20202;-71
2021/08/30 06:06:39;;;;;;;1.77;1.67;;;19.30;99.90;;;;;;5045840;28;20206;-72
2021/08/30 06:09:06;;;;;;;2.28;2.10;;;19.30;99.90;;;;;;5050817;28;20435;-72
2021/08/30 06:11:34;;;;;;;2.45;2.25;;;19.40;99.90;;;;;;5048331;28;20701;-72
2021/08/30 06:14:01;;;;;;;2.42;2.22;;;19.40;99.90;;;;;;5047636;28;20234;-72
2021/08/30 06:16:28;;;;;;;2.75;2.55;;;19.40;99.90;;;;;;5063118;28;20205;-71
2021/08/30 06:18:55;;;;;;;3.30;3.00;;;19.50;99.90;;;;;;5048477;28;20203;-73
2021/08/30 06:21:24;;;;;;;3.78;3.40;;;19.50;99.90;;;;;;5051277;28;20241;-71
2021/08/30 06:23:51;;;;;;;4.47;4.07;;;19.50;99.90;;;;;;5053163;28;20289;-72
2021/08/30 06:26:18;;;;;;;4.45;4.03;;;19.50;99.90;;;;;;5052178;28;20232;-72
2021/08/30 06:28:45;;;;;;;5.22;4.72;;;19.60;99.90;;;;;;5053232;28;20202;-72
2021/08/30 06:31:12;;;;;;;6.10;5.50;;;19.50;99.90;;;;;;5054892;28;20619;-71
2021/08/30 06:33:39;;;;;;;5.05;4.55;;;19.60;99.90;;;;;;5054692;28;20219;-71
2021/08/30 06:36:07;;;;;;;5.88;5.28;;;19.60;99.90;;;;;;5054366;28;20332;-72
2021/08/30 06:38:35;;;;;;;7.15;5.85;;;19.50;99.90;;;;;;5071187;28;20210;-72
2021/08/30 06:41:02;;;;;;;7.72;5.93;;;19.50;99.90;;;;;;5053438;28;20694;-72
2021/08/30 06:43:29;;;;;;;7.53;6.82;;;19.50;99.90;;;;;;5053233;28;20595;-72
2021/08/30 06:45:56;;;;;;;9.57;6.90;;;19.50;99.90;;;;;;5056077;28;20194;-73
2021/08/30 06:48:23;;;;;;;8.88;6.82;;;19.40;99.90;;;;;;5050127;28;20206;-73
2021/08/30 06:50:50;;;;;;;9.30;7.15;;;19.30;99.90;;;;;;5054683;28;20259;-73
2021/08/30 06:53:17;;;;;;;7.35;5.32;;;19.30;99.90;;;;;;5052228;28;20573;-73
2021/08/30 06:55:45;;;;;;;6.00;5.32;;;19.30;99.90;;;;;;5056319;28;20629;-73
2021/08/30 06:58:12;;;;;;;7.07;3.47;;;19.40;99.90;;;;;;5055952;28;20204;-73
2021/08/30 07:00:39;;;;;;;3.85;3.15;;;19.50;99.90;;;;;;5054902;28;20197;-73
2021/08/30 07:03:07;;;;;;;2.67;2.45;;;19.60;99.90;;;;;;5049214;28;20181;-73
2021/08/30 07:05:34;;;;;;;3.28;2.65;;;19.60;99.90;;;;;;5059366;28;20205;-72
2021/08/30 07:08:00;;;;;;;2.33;2.20;;;19.60;99.90;;;;;;5062996;28;20224;-72
2021/08/30 07:10:28;;;;;;;1.70;1.60;;;19.80;99.90;;;;;;5058568;28;20210;-76
2021/08/30 07:12:57;;;;;;;2.00;1.90;;;19.90;99.90;;;;;;5061312;28;20538;-74
2021/08/30 07:15:25;;;;;;;1.92;1.48;;;20.20;99.90;;;;;;5062217;28;20201;-73
2021/08/30 07:17:52;;;;;;;1.60;1.50;;;20.40;99.90;;;;;;5063567;28;20208;-74
2021/08/30 07:20:19;;;;;;;1.73;1.63;;;20.50;99.90;;;;;;5065164;28;20240;-75
2021/08/30 07:22:46;;;;;;;2.53;1.95;;;20.60;99.90;;;;;;5064166;28;20194;-74
2021/08/30 07:25:13;;;;;;;1.92;1.70;;;20.70;99.90;;;;;;5064777;28;20293;-74
2021/08/30 07:27:40;;;;;;;2.70;2.50;;;20.70;99.90;;;;;;5063660;28;20276;-75
2021/08/30 07:30:09;;;;;;;3.53;2.58;;;20.70;99.90;;;;;;5063487;28;20200;-74
2021/08/30 07:32:36;;;;;;;3.10;2.90;;;20.70;99.90;;;;;;5055051;28;20240;-74
2021/08/30 07:35:04;;;;;;;2.83;2.63;;;20.70;99.90;;;;;;5058215;28;20701;-74
2021/08/30 07:37:31;;;;;;;3.67;2.90;;;20.70;99.90;;;;;;5062995;28;20197;-75
2021/08/30 07:39:58;;;;;;;3.13;2.90;;;20.70;99.90;;;;;;5065340;28;20709;-74
2021/08/30 07:42:25;;;;;;;2.47;2.30;;;20.70;99.90;;;;;;5063292;28;20591;-74
2021/08/30 07:44:52;;;;;;;2.30;2.20;;;20.70;99.90;;;;;;5063353;28;20307;-74
2021/08/30 07:47:20;;;;;;;2.40;2.20;;;20.70;99.90;;;;;;5059460;28;20519;-74
2021/08/30 07:49:47;;;;;;;2.22;2.08;;;20.70;99.90;;;;;;5062925;28;20205;-72
2021/08/30 07:52:14;;;;;;;1.90;1.80;;;20.70;99.90;;;;;;5063431;28;20656;-73
2021/08/30 07:54:41;;;;;;;3.00;2.80;;;20.70;99.90;;;;;;5060142;28;20221;-73
2021/08/30 07:57:08;;;;;;;2.65;2.45;;;20.70;99.90;;;;;;5058255;28;20680;-73
2021/08/30 07:59:35;;;;;;;3.20;2.47;;;20.70;99.90;;;;;;5057501;28;20229;-73
2021/08/30 08:02:02;;;;;;;3.08;2.88;;;20.60;99.90;;;;;;5054963;28;20197;-73
2021/08/30 08:04:31;;;;;;;3.35;3.05;;;20.60;99.90;;;;;;5057700;28;20238;-73
2021/08/30 08:06:57;;;;;;;2.75;2.38;;;21.10;99.90;;;;;;5061664;28;20272;-73
2021/08/30 08:09:25;;;;;;;2.40;2.30;;;20.70;99.90;;;;;;5059039;28;20209;-73
2021/08/30 08:11:51;;;;;;;2.70;2.50;;;20.70;99.90;;;;;;5061006;28;20210;-73
2021/08/30 08:14:19;;;;;;;2.20;2.00;;;20.70;99.90;;;;;;5057463;28;20302;-74
2021/08/30 08:16:46;;;;;;;4.13;2.33;;;20.70;99.90;;;;;;5062305;28;20185;-73
2021/08/30 08:19:14;;;;;;;2.28;2.05;;;20.80;99.90;;;;;;5048010;28;20201;-74
2021/08/30 08:21:43;;;;;;;3.45;2.22;;;21.00;99.90;;;;;;5073324;28;20201;-74
2021/08/30 08:24:10;;;;;;;3.28;2.88;;;22.10;99.90;;;;;;5055814;28;20668;-74
2021/08/30 08:26:38;;;;;;;2.83;2.63;;;23.20;99.90;;;;;;5060241;28;20201;-73
2021/08/30 08:29:04;;;;;;;2.78;2.58;;;23.60;99.90;;;;;;5057272;28;20208;-74
2021/08/30 08:31:32;;;;;;;2.25;2.15;;;23.60;99.90;;;;;;5052824;28;20224;-74
2021/08/30 08:33:59;;;;;;;2.50;2.30;;;23.40;99.90;;;;;;5067050;28;20221;-74
2021/08/30 08:36:26;;;;;;;2.47;2.10;;;23.20;99.90;;;;;;5063086;28;20197;-74
2021/08/30 08:38:55;;;;;;;2.08;1.98;;;23.00;99.90;;;;;;5061280;28;20200;-74
2021/08/30 08:41:22;;;;;;;2.47;2.28;;;23.00;99.90;;;;;;5056415;28;20185;-74
2021/08/30 08:43:55;;;;;;;2.22;2.10;;;22.90;99.90;;;;;;5063611;28;20270;-74
2021/08/30 08:46:25;;;;;;;3.13;2.90;;;22.90;99.90;;;;;;5054263;28;20204;-73
2021/08/30 08:48:52;;;;;;;2.47;2.38;;;22.70;99.90;;;;;;5060588;28;20247;-73
2021/08/30 08:51:19;;;;;;;3.38;2.30;;;22.60;99.90;;;;;;5059020;28;20225;-74
2021/08/30 08:53:46;;;;;;;2.42;2.33;;;22.40;99.90;;;;;;5064358;28;20217;-74
2021/08/30 08:56:15;;;;;;;2.40;2.20;;;22.20;99.90;;;;;;5059018;28;20228;-73
2021/08/30 08:58:42;;;;;;;2.50;2.30;;;22.00;99.90;;;;;;5058073;28;20202;-73
2021/08/30 09:01:12;;;;;;;2.17;2.08;;;21.80;99.90;;;;;;5056038;28;20693;-73
2021/08/30 09:03:45;;;;;;;3.10;2.50;;;21.80;99.90;;;;;;5060449;28;20553;-73
2021/08/30 09:06:13;;;;;;;2.45;2.33;;;21.60;99.90;;;;;;5055759;28;20253;-74
2021/08/30 09:08:42;;;;;;;2.47;2.30;;;21.50;99.90;;;;;;5057446;28;20205;-73
2021/08/30 09:11:19;;;;;;;2.75;2.55;;;21.40;99.90;;;;;;5050015;28;20825;-73
2021/08/30 09:13:51;;;;;;;2.60;2.40;;;22.30;99.90;;;;;;5055516;28;20724;-73
2021/08/30 09:16:19;;;;;;;3.22;3.03;;;23.30;99.90;;;;;;5056993;28;20300;-74
2021/08/30 09:18:47;;;;;;;5.07;3.22;;;23.80;99.90;;;;;;5054623;28;20684;-73
2021/08/30 09:21:16;;;;;;;2.72;2.53;;;24.00;99.90;;;;;;5063597;28;20208;-73
2021/08/30 09:23:44;;;;;;;3.28;2.08;;;23.80;99.90;;;;;;5054863;28;20301;-71
2021/08/30 09:26:17;;;;;;;2.60;2.40;;;23.60;99.90;;;;;;5059097;28;20189;-72
2021/08/30 09:28:51;;;;;;;2.50;2.30;;;23.30;99.90;;;;;;5059520;28;20640;-71
2021/08/30 09:31:18;;;;;;;2.58;1.60;;;23.00;99.90;;;;;;5064177;28;20615;-72
2021/08/30 09:33:49;;;;;;;2.42;2.22;;;22.80;99.90;;;;;;5054169;28;20221;-71
2021/08/30 09:36:17;;;;;;;3.22;2.28;;;22.70;99.90;;;;;;5062221;28;20213;-72
2021/08/30 09:38:44;;;;;;;2.55;2.35;;;22.60;99.90;;;;;;5060116;28;20201;-73
2021/08/30 09:41:12;;;;;;;2.35;2.20;;;22.40;99.90;;;;;;5059761;28;20193;-72
2021/08/30 09:43:40;;;;;;;2.05;1.95;;;22.20;99.90;;;;;;5053059;28;20193;-72
2021/08/30 09:46:09;;;;;;;3.03;2.67;;;22.10;99.90;;;;;;5052072;28;20203;-72
2021/08/30 09:48:36;;;;;;;3.38;2.67;;;21.80;99.90;;;;;;5061508;28;20604;-72
2021/08/30 09:51:05;;;;;;;3.20;3.00;;;21.60;99.90;;;;;;5057398;28;20204;-72
2021/08/30 09:53:33;;;;;;;3.00;2.80;;;21.40;99.90;;;;;;5058073;28;20233;-72
2021/08/30 09:56:01;;;;;;;4.05;2.65;;;21.30;99.90;;;;;;5055105;28;20196;-72
2021/08/30 09:58:29;;;;;;;2.25;2.15;;;21.10;99.90;;;;;;5059030;28;20654;-74
2021/08/30 10:01:00;;;;;;;3.80;2.90;;;21.20;99.90;;;;;;5056882;28;20220;-72
2021/08/30 10:03:31;;;;;;;2.80;2.60;;;21.20;99.90;;;;;;5061277;28;20284;-71
2021/08/30 10:05:59;;;;;;;2.97;2.78;;;21.20;99.90;;;;;;5061749;28;20198;-71
2021/08/30 10:08:26;;;;;;;4.13;2.72;;;21.10;99.90;;;;;;5057697;28;20217;-71
2021/08/30 10:10:53;;;;;;;2.80;2.70;;;21.10;99.90;;;;;;5055105;28;20251;-71
2021/08/30 10:13:20;;;;;;;7.10;3.00;;;21.00;99.90;;;;;;5054758;28;20739;-72
2021/08/30 10:15:50;;;;;;;2.92;2.72;;;21.00;99.90;;;;;;5060718;28;20437;-71
2021/08/30 10:18:20;;;;;;;3.47;2.78;;;21.00;99.90;;;;;;5056810;28;20651;-71
2021/08/30 10:20:49;;;;;;;2.70;2.50;;;21.00;99.90;;;;;;5058212;28;20186;-71
2021/08/30 10:23:18;;;;;;;3.10;2.90;;;21.20;99.90;;;;;;5048977;28;20248;-71
2021/08/30 10:25:57;;;;;;;2.70;2.45;;;21.40;99.90;;;;;;5064186;28;20703;-71
2021/08/30 10:28:36;;;;;;;2.65;2.45;;;21.70;99.90;;;;;;5056353;28;20193;-71
2021/08/30 10:31:15;;;;;;;3.72;2.60;;;22.00;99.90;;;;;;5064276;28;20205;-71
2021/08/30 10:33:45;;;;;;;2.80;2.60;;;22.20;99.90;;;;;;5059184;28;20221;-72
2021/08/30 10:36:14;;;;;;;2.33;2.22;;;22.20;99.90;;;;;;5067345;28;20274;-72
2021/08/30 10:38:41;;;;;;;2.42;2.22;;;22.30;99.90;;;;;;5058126;28;20212;-71
2021/08/30 10:41:17;;;;;;;4.68;2.60;;;22.20;99.90;;;;;;5061127;28;20193;-72
2021/08/30 10:43:45;;;;;;;7.43;2.97;;;22.20;99.90;;;;;;5065875;28;20205;-72
2021/08/30 10:46:16;;;;;;;4.75;3.30;;;22.20;99.90;;;;;;5065835;28;20306;-72
2021/08/30 10:48:54;;;;;;;6.47;2.63;;;22.20;99.90;;;;;;5067773;28;20264;-72
2021/08/30 10:51:24;;;;;;;2.55;2.35;;;22.30;99.90;;;;;;5066862;28;20697;-71
2021/08/30 10:53:56;;;;;;;2.65;2.45;;;22.40;99.90;;;;;;5066745;28;20564;-72
2021/08/30 10:56:27;;;;;;;3.03;1.73;;;22.50;99.90;;;;;;5066302;28;20204;-72
2021/08/30 10:58:56;;;;;;;2.20;1.80;;;22.50;99.90;;;;;;5056290;28;20202;-73
2021/08/30 11:01:23;;;;;;;1.92;1.80;;;22.60;99.90;;;;;;5064769;28;20264;-72
2021/08/30 11:03:57;;;;;;;2.20;1.90;;;22.50;99.90;;;;;;5062601;28;20185;-74
2021/08/30 11:06:25;;;;;;;2.78;2.00;;;22.50;99.90;;;;;;5063026;28;20200;-74
2021/08/30 11:08:52;;;;;;;2.10;1.90;;;22.30;99.90;;;;;;5055965;28;20725;-72
2021/08/30 11:11:21;;;;;;;2.58;2.00;;;22.20;99.90;;;;;;5063249;28;20198;-73
2021/08/30 11:14:00;;;;;;;2.63;1.85;;;22.20;99.90;;;;;;5053344;28;20252;-73
2021/08/30 11:16:28;;;;;;;1.98;1.88;;;22.10;99.90;;;;;;5060508;28;20206;-73
2021/08/30 11:18:59;;;;;;;2.42;2.22;;;22.20;99.90;;;;;;5056147;28;20198;-72
2021/08/30 11:21:50;;;;;;;2.60;2.40;;;22.30;99.90;;;;;;5056835;28;20225;-72
2021/08/30 11:24:31;;;;;;;3.70;1.80;;;22.50;99.90;;;;;;5057844;28;20288;-75
2021/08/30 11:27:02;;;;;;;1.70;1.60;;;22.70;99.90;;;;;;5062708;28;20197;-75
2021/08/30 11:29:29;;;;;;;1.75;1.65;;;22.90;99.90;;;;;;5062514;28;20229;-73
2021/08/30 11:31:56;;;;;;;1.63;1.52;;;23.10;99.90;;;;;;5057419;28;20198;-73
2021/08/30 11:34:31;;;;;;;1.65;1.58;;;23.20;99.90;;;;;;5063687;28;20677;-73
2021/08/30 11:36:59;;;;;;;1.70;1.60;;;23.00;99.90;;;;;;5064755;28;20200;-73
2021/08/30 11:39:28;;;;;;;2.40;2.20;;;22.80;99.90;;;;;;5057141;28;20201;-73
2021/08/30 11:41:58;;;;;;;2.00;1.90;;;22.70;99.90;;;;;;5057941;28;20211;-73
2021/08/30 11:44:27;;;;;;;3.42;1.88;;;22.60;99.90;;;;;;5066480;28;20193;-73
2021/08/30 11:46:56;;;;;;;2.10;2.00;;;22.50;99.90;;;;;;5059936;28;20189;-74
2021/08/30 11:49:25;;;;;;;2.25;2.03;;;22.40;99.90;;;;;;5062959;28;20205;-73
2021/08/30 11:51:54;;;;;;;1.90;1.70;;;22.40;99.90;;;;;;5052149;28;20201;-74
2021/08/30 11:54:27;;;;;;;1.77;1.60;;;22.30;99.90;;;;;;5057529;28;20923;-74
2021/08/30 11:56:57;;;;;;;1.77;1.67;;;22.40;99.90;;;;;;5061728;28;20654;-74
2021/08/30 11:59:29;;;;;;;3.55;1.98;;;22.50;99.90;;;;;;5059980;28;20212;-74
2021/08/30 12:01:57;;;;;;;1.75;1.65;;;22.60;99.90;;;;;;5062797;28;20207;-74
2021/08/30 12:04:29;;;;;;;2.08;1.92;;;22.70;99.90;;;;;;5058614;28;20269;-74
2021/08/30 12:06:59;;;;;;;2.20;2.00;;;22.70;99.90;;;;;;5064145;28;20206;-74
2021/08/30 12:09:36;;;;;;;1.98;1.88;;;22.90;99.90;;;;;;5056113;28;20691;-74
2021/08/30 12:12:11;;;;;;;3.75;2.13;;;23.10;99.90;;;;;;5063970;28;20209;-74
2021/08/30 12:14:38;;;;;;;2.15;2.05;;;23.40;99.90;;;;;;5062195;28;20306;-75
2021/08/30 12:17:05;;;;;;;2.40;2.30;;;23.50;99.90;;;;;;5060680;28;20422;-74
2021/08/30 12:19:33;;;;;;;3.38;2.40;;;23.50;99.90;;;;;;5059117;28;20696;-75
2021/08/30 12:22:00;;;;;;;2.25;2.03;;;23.60;99.90;;;;;;5064964;28;20204;-74
2021/08/30 12:24:27;;;;;;;2.25;2.15;;;23.80;99.90;;;;;;5061577;28;20302;-74
2021/08/30 12:26:54;;;;;;;3.15;2.13;;;23.80;99.90;;;;;;5058567;28;20546;-74
2021/08/30 12:29:22;;;;;;;2.50;2.30;;;23.80;99.90;;;;;;5063567;28;20207;-74
2021/08/30 12:31:54;;;;;;;2.67;2.47;;;23.70;99.90;;;;;;5059989;28;20205;-74
2021/08/30 12:34:25;;;;;;;3.60;2.70;;;23.70;99.90;;;;;;5059284;28;20221;-73
2021/08/30 12:36:53;;;;;;;2.28;2.15;;;23.80;99.90;;;;;;5065927;28;20690;-73
2021/08/30 12:39:20;;;;;;;2.90;2.70;;;23.80;99.90;;;;;;5062619;28;20654;-73
2021/08/30 12:41:47;;;;;;;2.70;2.50;;;23.70;99.90;;;;;;5055147;28;20274;-73
2021/08/30 12:44:14;;;;;;;2.67;2.47;;;23.60;99.90;;;;;;5064856;28;20201;-74
2021/08/30 12:46:41;;;;;;;3.30;3.00;;;23.50;99.90;;;;;;5056971;28;20193;-72
2021/08/30 12:49:08;;;;;;;2.90;2.70;;;23.40;99.90;;;;;;5058024;28;20205;-73
2021/08/30 12:51:36;;;;;;;3.17;2.40;;;23.30;99.90;;;;;;5055265;28;20197;-73
2021/08/30 12:54:04;;;;;;;3.08;2.88;;;23.30;99.90;;;;;;5060730;28;20201;-74
2021/08/30 12:56:31;;;;;;;3.95;2.83;;;23.30;99.90;;;;;;5064795;28;20200;-71
2021/08/30 12:58:58;;;;;;;2.60;2.40;;;23.30;99.90;;;;;;5057841;28;20202;-71